This is the latest recevied weather packets stored in our database for station/object K3RUP-1. If no packets are shown the sender has not sent any weather packets the latest 10 day(s).
| Time | Temp. | Humidity | Pressure | Rain* | Wind** | Luminosity | Snow |
|---|---|---|---|---|---|---|---|
| 1787933527 | 25.56° C | 86% | 1016.3 hPa | 0 mm | - | 240 W/m² | - |
| 1787933221 | 25.56° C | 87% | 1016.3 hPa | 0 mm | - | 263 W/m² | - |
| 1787932916 | 25.56° C | 86% | 1016.3 hPa | 0 mm | - | 232 W/m² | - |
| 1787932615 | 25.56° C | 87% | 1016.5 hPa | 0 mm | - | 180 W/m² | - |
| 1787932315 | 25.56° C | 87% | 1016.2 hPa | 0 mm | - | 354 W/m² | - |
| 1787932009 | 25.56° C | 87% | 1016.5 hPa | 0 mm | - | 229 W/m² | - |
| 1787931709 | 25.56° C | 89% | 1016.4 hPa | 0 mm | - | 279 W/m² | - |
| 1787931403 | 25° C | 88% | 1016.4 hPa | 0 mm | - | 215 W/m² | - |
| 1787931098 | 25° C | 89% | 1016.5 hPa | 0 mm | - | 199 W/m² | - |
| 1787930797 | 25° C | 90% | 1016.6 hPa | 0 mm | - | 134 W/m² | - |
| 1787930492 | 25° C | 90% | 1016.5 hPa | 0 mm | - | 142 W/m² | - |
| 1787930187 | 25° C | 91% | 1016.6 hPa | 0 mm | - | 136 W/m² | - |
| 1787929886 | 24.44° C | 91% | 1016.7 hPa | 0 mm | - | 111 W/m² | - |
| 1787929581 | 24.44° C | 91% | 1016.7 hPa | 0 mm | - | 91 W/m² | - |
| 1787929281 | 24.44° C | 92% | 1016.4 hPa | 0 mm | - | 106 W/m² | - |
| 1787928978 | 24.44° C | 92% | 1016.6 hPa | 0 mm | - | 90 W/m² | - |
| 1787928674 | 24.44° C | 92% | 1016.1 hPa | 0 mm | - | 101 W/m² | - |
| 1787928372 | 24.44° C | 92% | 1016.3 hPa | 0 mm | - | 111 W/m² | - |
| 1787928071 | 23.89° C | 93% | 1016.2 hPa | 0 mm | - | 110 W/m² | - |
| 1787927770 | 23.89° C | 93% | 1016.1 hPa | 0 mm | - | 98 W/m² | - |
| 1787927465 | 24.44° C | 93% | 1016.3 hPa | 0 mm | - | 78 W/m² | - |
| 1787927160 | 24.44° C | 93% | 1016.1 hPa | 0 mm | - | 92 W/m² | - |
| 1787926860 | 24.44° C | 93% | 1016.2 hPa | 0 mm | - | 56 W/m² | - |
| 1787926555 | 24.44° C | 93% | 1016 hPa | 0 mm | - | 54 W/m² | - |
| 1787926253 | 24.44° C | 93% | 1015.9 hPa | 0 mm | - | 90 W/m² | - |
* Rain latest hour (hover to see other rain measurements)
** Current wind speed in m/s (hover to see current wind gust speed)